Portada
METAR-TAF:

METAR-TAF

Aeroports :

Koné, Nova Caledònia

latitud: 21-03-12S, longitud: 164-50-18E, altitud: 7 m

METAR: manca

Hora: 09:58 (22:58 UTC)

Pronòstic

L'informe es va fer fa 5 hores i 58 minuts, a les 17:00 UTC
Pronòstic vàlid del 26 a les 18 UTC al 27 a les 18 UTC
Vent 2 kt amb direcció variable
Visibilitat 10 km o més
Escasses núvols a una alçada de 4000 ft
Evolucionant progressivament
l' 26 a les 22 UTC al 26 a les 24 UTC
Vent 10 kt del Sud/Sud-Oest
Temporalment
l' 27 a les 00 UTC al 27 a les 09 UTC
Visibilitat: 4000 m
Escasses núvols a una alçada de 2000 ft, Cumulonimbus.
xàfecs de pluja
Probabilitat 30% :
Temporalment
l' 27 a les 00 UTC al 27 a les 06 UTC
Visibilitat: 2000 m
Núvols disperses a una alçada de 2000 ft, Cumulonimbus.
tempesta, pluja

TAF: NWWD 261700Z 2618/2718 VRB02KT 9999 FEW040 BECMG 2622/2624 20010KT TEMPO 2700/2709 4000 SHRA FEW020CB PROB30 TEMPO 2700/2706 2000 TSRA SCT020CB

Observacions i pronòstics meteorològics de més de 4000 aeroports (METAR i TAF).

Les estacions disponibles són els punts grocs i vermells al mapa.

Posi el ratolí al punt desitjat per veure el nom de l'estació.

Feu clic per veure les observacions i els pronòstics meteorològics.

Per canviar el mapa: feu clic els botons verds amb una creu de color negre per apropar; al botó verd amb un guió per allunyar la imatge; o en les fletxes verdes per a mapes adjacents.


METAR-TAF: